Time;durP1;ratioP1;P1;durP2;ratioP2;P2;SDS_P1;SDS_P2;PMS_P1;PMS_P2;Temp;Humidity;BMP_temperature;BMP_pressure;BME280_temperature;BME280_humidity;BME280_pressure;Samples;Min_cycle;Max_cycle;Signal;HPM_P1;HPM_P2
2022/04/11 00:02:17;;;;;;;3.70;2.58;;;1.90;99.90;;;;;;5108679;28;20040;-69
2022/04/11 00:04:43;;;;;;;4.95;2.53;;;1.90;99.90;;;;;;5115005;28;20044;-68
2022/04/11 00:07:09;;;;;;;5.57;2.22;;;1.80;99.90;;;;;;5113773;28;20086;-68
2022/04/11 00:09:35;;;;;;;2.95;2.10;;;1.80;99.90;;;;;;5096438;28;20086;-68
2022/04/11 00:12:01;;;;;;;4.47;2.72;;;1.80;99.90;;;;;;5095245;28;20036;-69
2022/04/11 00:14:27;;;;;;;3.58;2.90;;;2.10;99.90;;;;;;5113534;28;20039;-68
2022/04/11 00:16:52;;;;;;;5.70;3.13;;;1.70;99.90;;;;;;5114134;28;20070;-68
2022/04/11 00:19:18;;;;;;;3.33;2.00;;;1.70;99.90;;;;;;5114176;28;20081;-68
2022/04/11 00:21:44;;;;;;;3.67;2.53;;;1.70;99.90;;;;;;5113616;28;20105;-68
2022/04/11 00:24:10;;;;;;;3.78;3.00;;;1.70;99.90;;;;;;5095998;28;20058;-68
2022/04/11 00:26:35;;;;;;;3.22;2.33;;;1.70;99.90;;;;;;5114325;28;20494;-68
2022/04/11 00:29:01;;;;;;;6.90;2.58;;;1.60;99.90;;;;;;5094980;28;20047;-69
2022/04/11 00:31:27;;;;;;;2.38;1.88;;;1.60;99.90;;;;;;5114404;28;20047;-68
2022/04/11 00:33:52;;;;;;;5.63;2.30;;;1.50;99.90;;;;;;5095927;28;20047;-68
2022/04/11 00:36:18;;;;;;;3.42;2.33;;;1.70;99.90;;;;;;5113095;28;20078;-68
2022/04/11 00:38:43;;;;;;;2.60;2.40;;;1.50;99.90;;;;;;5095608;28;20084;-68
2022/04/11 00:41:09;;;;;;;4.07;2.53;;;1.50;99.90;;;;;;5113542;28;20142;-68
2022/04/11 00:43:39;;;;;;;3.70;2.60;;;1.50;99.90;;;;;;5113321;28;20040;-68
2022/04/11 00:46:06;;;;;;;3.60;2.35;;;1.50;99.90;;;;;;5113535;28;20059;-68
2022/04/11 00:48:33;;;;;;;3.53;2.33;;;1.40;99.90;;;;;;5113812;28;20036;-68
2022/04/11 00:51:11;;;;;;;4.43;2.60;;;1.40;99.90;;;;;;5093163;28;20077;-68
2022/04/11 00:53:41;;;;;;;3.40;2.50;;;1.40;99.90;;;;;;5095732;28;20052;-68
2022/04/11 00:56:10;;;;;;;5.30;3.30;;;1.30;99.90;;;;;;5112337;28;20474;-68
2022/04/11 00:58:35;;;;;;;4.13;2.65;;;1.30;99.90;;;;;;5095252;28;20073;-68
2022/04/11 01:01:02;;;;;;;5.10;3.17;;;1.30;99.90;;;;;;5095090;28;20163;-68
2022/04/11 01:03:28;;;;;;;4.75;3.20;;;1.30;99.90;;;;;;5113131;28;20151;-68
2022/04/11 01:05:53;;;;;;;3.45;2.55;;;1.20;99.90;;;;;;5095485;28;20131;-68
2022/04/11 01:08:19;;;;;;;5.97;2.60;;;1.20;99.90;;;;;;5094935;28;20043;-68
2022/04/11 01:10:45;;;;;;;4.32;2.55;;;1.20;99.90;;;;;;5113385;28;20040;-68
2022/04/11 01:13:11;;;;;;;3.58;3.20;;;1.10;99.90;;;;;;5113298;28;20447;-68
2022/04/11 01:15:37;;;;;;;6.88;2.90;;;1.10;99.90;;;;;;5113527;28;20040;-68
2022/04/11 01:18:03;;;;;;;5.57;2.80;;;1.10;99.90;;;;;;5094447;28;20039;-68
2022/04/11 01:20:29;;;;;;;6.28;2.90;;;1.10;99.90;;;;;;5095224;28;20107;-68
2022/04/11 01:22:55;;;;;;;4.88;2.50;;;1.10;99.90;;;;;;5094682;28;20393;-68
2022/04/11 01:25:20;;;;;;;5.07;2.63;;;1.10;99.90;;;;;;5112770;28;20500;-68
2022/04/11 01:27:49;;;;;;;4.60;2.75;;;1.10;99.90;;;;;;5113398;28;20040;-68
2022/04/11 01:30:16;;;;;;;3.78;2.72;;;1.10;99.90;;;;;;5113104;28;20055;-68
2022/04/11 01:32:42;;;;;;;5.43;3.05;;;1.00;99.90;;;;;;5093983;28;20052;-68
2022/04/11 01:35:26;;;;;;;4.35;2.80;;;1.00;99.90;;;;;;5094528;28;20073;-69
2022/04/11 01:37:55;;;;;;;6.03;3.17;;;1.10;99.90;;;;;;5113231;28;20056;-68
2022/04/11 01:40:21;;;;;;;4.65;2.90;;;1.00;99.90;;;;;;5113185;28;20035;-69
2022/04/11 01:42:47;;;;;;;7.18;2.85;;;1.00;99.90;;;;;;5113072;28;20050;-68
2022/04/11 01:45:13;;;;;;;7.00;3.13;;;1.00;99.90;;;;;;5112335;28;20040;-69
2022/04/11 01:47:40;;;;;;;7.72;2.67;;;1.00;99.90;;;;;;5112882;28;20071;-68
2022/04/11 01:50:09;;;;;;;7.10;3.50;;;1.20;99.90;;;;;;5090553;28;20052;-68
2022/04/11 01:52:35;;;;;;;4.50;2.75;;;1.00;99.90;;;;;;5090302;28;20043;-68
2022/04/11 01:55:03;;;;;;;3.20;2.75;;;1.00;99.90;;;;;;5090812;28;20406;-68
2022/04/11 01:57:29;;;;;;;3.70;2.63;;;1.00;99.90;;;;;;5090776;28;20087;-69
2022/04/11 01:59:55;;;;;;;4.10;2.80;;;1.20;99.90;;;;;;5089919;28;20040;-68
2022/04/11 02:02:20;;;;;;;3.95;2.58;;;1.00;99.90;;;;;;5092308;28;20055;-68
2022/04/11 02:04:46;;;;;;;7.10;3.08;;;1.00;99.90;;;;;;5090775;28;20094;-68
2022/04/11 02:07:15;;;;;;;3.50;2.40;;;1.00;99.90;;;;;;5091360;28;20036;-68
2022/04/11 02:09:40;;;;;;;3.10;2.80;;;1.00;99.90;;;;;;5090871;28;20479;-68
2022/04/11 02:12:06;;;;;;;3.92;2.67;;;0.90;99.90;;;;;;5090479;28;20052;-68
2022/04/11 02:14:32;;;;;;;6.10;2.75;;;0.90;99.90;;;;;;5091236;28;20063;-68
2022/04/11 02:16:57;;;;;;;9.57;3.53;;;0.90;99.90;;;;;;5091634;28;20123;-69
2022/04/11 02:19:26;;;;;;;4.28;2.38;;;0.90;99.90;;;;;;5092271;28;20086;-68
2022/04/11 02:21:51;;;;;;;5.35;2.50;;;0.90;99.90;;;;;;5089828;28;20436;-68
2022/04/11 02:24:17;;;;;;;4.30;2.33;;;0.90;99.90;;;;;;5090340;28;20056;-68
2022/04/11 02:26:42;;;;;;;3.42;2.10;;;0.90;99.90;;;;;;5091991;28;20441;-68
2022/04/11 02:29:08;;;;;;;3.25;2.30;;;0.80;99.90;;;;;;5090801;28;20044;-68
2022/04/11 02:31:33;;;;;;;2.95;2.38;;;0.80;99.90;;;;;;5091862;28;20107;-69
2022/04/11 02:34:02;;;;;;;3.83;2.38;;;0.80;99.90;;;;;;5091742;28;20040;-69
2022/04/11 02:36:27;;;;;;;6.13;2.97;;;0.80;99.90;;;;;;5090923;28;20571;-69
2022/04/11 02:38:53;;;;;;;4.07;2.53;;;0.80;99.90;;;;;;5090502;28;20044;-68
2022/04/11 02:41:18;;;;;;;3.25;2.38;;;0.70;99.90;;;;;;5090766;28;20051;-69
2022/04/11 02:43:44;;;;;;;5.28;2.88;;;0.80;99.90;;;;;;5091820;28;20446;-69
2022/04/11 02:46:10;;;;;;;4.25;2.30;;;0.80;99.90;;;;;;5091364;28;20054;-69
2022/04/11 02:48:36;;;;;;;5.70;2.50;;;0.80;99.90;;;;;;5091868;28;20493;-69
2022/04/11 02:51:04;;;;;;;6.82;2.97;;;0.70;99.90;;;;;;5111994;28;20050;-69
2022/04/11 02:53:30;;;;;;;10.55;3.65;;;0.80;99.90;;;;;;5112083;28;20051;-69
2022/04/11 02:55:55;;;;;;;9.68;2.80;;;0.70;99.90;;;;;;5092679;28;20048;-69
2022/04/11 02:58:21;;;;;;;5.78;2.92;;;0.70;99.90;;;;;;5112074;28;20047;-68
2022/04/11 03:00:46;;;;;;;4.57;2.60;;;0.70;99.90;;;;;;5093644;28;20047;-68
2022/04/11 03:03:12;;;;;;;3.33;2.55;;;0.80;99.90;;;;;;5092684;28;20362;-69
2022/04/11 03:05:38;;;;;;;3.13;2.55;;;0.70;99.90;;;;;;5111901;28;20045;-68
2022/04/11 03:08:04;;;;;;;4.45;2.80;;;0.70;99.90;;;;;;5111638;28;20039;-69
2022/04/11 03:10:29;;;;;;;3.75;2.65;;;0.70;99.90;;;;;;5114623;28;20050;-69
2022/04/11 03:12:55;;;;;;;6.22;3.08;;;0.80;99.90;;;;;;5115738;28;20417;-70
2022/04/11 03:15:21;;;;;;;7.07;2.70;;;0.70;99.90;;;;;;5097332;28;20054;-69
2022/04/11 03:17:46;;;;;;;4.95;3.42;;;0.70;99.90;;;;;;5115278;28;20079;-69
2022/04/11 03:20:12;;;;;;;3.08;2.33;;;0.70;99.90;;;;;;5097368;28;20044;-69
2022/04/11 03:22:37;;;;;;;4.50;2.90;;;0.70;99.90;;;;;;5115920;28;20047;-68
2022/04/11 03:25:04;;;;;;;6.03;2.90;;;0.80;99.90;;;;;;5114727;28;20514;-69
2022/04/11 03:27:30;;;;;;;6.07;2.88;;;0.90;99.90;;;;;;5115758;28;20039;-69
2022/04/11 03:29:55;;;;;;;3.25;2.58;;;1.00;99.90;;;;;;5115245;28;20119;-69
2022/04/11 03:32:21;;;;;;;3.10;2.70;;;1.00;99.90;;;;;;5096558;28;20040;-69
2022/04/11 03:34:46;;;;;;;3.95;2.30;;;1.00;99.90;;;;;;5097454;28;20466;-69
2022/04/11 03:37:12;;;;;;;4.63;2.63;;;1.00;99.90;;;;;;5096995;28;20046;-68
2022/04/11 03:39:37;;;;;;;3.50;2.80;;;1.10;99.90;;;;;;5096498;28;20043;-68
2022/04/11 03:42:03;;;;;;;4.40;2.67;;;1.10;99.90;;;;;;5115181;28;20375;-69
2022/04/11 03:44:29;;;;;;;3.42;2.70;;;1.20;99.90;;;;;;5096317;28;20050;-69
2022/04/11 03:46:55;;;;;;;4.80;3.08;;;1.30;99.90;;;;;;5115149;28;20051;-69
2022/04/11 03:49:20;;;;;;;2.97;2.50;;;1.40;99.90;;;;;;5115320;28;20051;-68
2022/04/11 03:51:46;;;;;;;5.75;2.80;;;1.40;99.90;;;;;;5096145;28;20048;-68
2022/04/11 03:54:12;;;;;;;4.60;2.80;;;1.40;99.90;;;;;;5096722;28;20051;-69
2022/04/11 03:56:37;;;;;;;4.70;2.47;;;1.50;99.90;;;;;;5096985;28;20051;-69
2022/04/11 03:59:04;;;;;;;4.57;3.28;;;1.50;99.90;;;;;;5113865;28;20043;-68
2022/04/11 04:01:30;;;;;;;2.75;2.22;;;1.50;99.90;;;;;;5115150;28;20047;-68
2022/04/11 04:03:56;;;;;;;6.68;2.90;;;1.60;99.90;;;;;;5114688;28;20096;-69
2022/04/11 04:06:21;;;;;;;3.33;2.53;;;1.60;99.90;;;;;;5114316;28;20047;-68
2022/04/11 04:08:47;;;;;;;7.18;2.65;;;1.60;99.90;;;;;;5096543;28;20089;-68
2022/04/11 04:11:12;;;;;;;4.38;2.15;;;1.70;99.90;;;;;;5114480;28;20043;-69
2022/04/11 04:13:38;;;;;;;4.28;2.10;;;1.70;99.90;;;;;;5095587;28;20040;-68
2022/04/11 04:16:04;;;;;;;3.88;1.70;;;1.70;99.90;;;;;;5096141;28;20134;-69
2022/04/11 04:18:30;;;;;;;3.55;2.08;;;1.80;99.90;;;;;;5096448;28;20067;-68
2022/04/11 04:20:56;;;;;;;4.97;2.05;;;1.80;99.90;;;;;;5094541;28;20035;-68
2022/04/11 04:23:21;;;;;;;2.38;1.90;;;1.80;99.90;;;;;;5096273;28;20092;-69
2022/04/11 04:25:47;;;;;;;2.03;1.83;;;1.80;99.90;;;;;;5114513;28;20051;-68
2022/04/11 04:28:15;;;;;;;2.13;1.80;;;1.90;99.90;;;;;;5113331;28;20040;-68
2022/04/11 04:30:40;;;;;;;2.40;2.20;;;1.90;99.90;;;;;;5114626;28;20047;-68
2022/04/11 04:33:06;;;;;;;5.00;2.40;;;1.90;99.90;;;;;;5096061;28;20188;-69
2022/04/11 04:35:32;;;;;;;4.03;2.10;;;1.90;99.90;;;;;;5113668;28;20051;-68
2022/04/11 04:37:57;;;;;;;5.72;1.90;;;2.20;99.90;;;;;;5096061;28;20541;-69
2022/04/11 04:40:23;;;;;;;3.90;2.58;;;1.90;99.90;;;;;;5114255;28;20505;-68
2022/04/11 04:42:48;;;;;;;8.07;2.38;;;2.00;99.90;;;;;;5095073;28;20065;-68
2022/04/11 04:45:14;;;;;;;4.22;2.38;;;2.00;99.90;;;;;;5083343;28;20460;-69
2022/04/11 04:47:40;;;;;;;2.15;1.92;;;2.00;99.90;;;;;;5096714;28;20127;-68
2022/04/11 04:50:06;;;;;;;4.57;1.92;;;2.00;99.90;;;;;;5111950;28;20110;-68
2022/04/11 04:52:32;;;;;;;4.07;2.20;;;2.10;99.90;;;;;;5095717;28;20043;-69
2022/04/11 04:54:57;;;;;;;5.30;1.83;;;2.00;99.90;;;;;;5094597;28;20046;-68
2022/04/11 04:57:23;;;;;;;6.25;2.45;;;2.10;99.90;;;;;;5095398;28;20501;-68
2022/04/11 04:59:48;;;;;;;4.32;2.42;;;2.10;99.90;;;;;;5095603;28;20405;-68
2022/04/11 05:02:14;;;;;;;4.85;3.65;;;2.10;99.90;;;;;;5112999;28;20040;-68
2022/04/11 05:04:40;;;;;;;2.85;2.05;;;2.10;99.90;;;;;;5113931;28;20070;-69
2022/04/11 05:07:05;;;;;;;3.95;2.10;;;2.20;99.90;;;;;;5094911;28;20055;-68
2022/04/11 05:09:34;;;;;;;4.10;2.50;;;2.20;99.90;;;;;;5094860;28;20130;-68
2022/04/11 05:12:05;;;;;;;10.63;2.45;;;2.20;99.90;;;;;;5113208;28;20070;-69
2022/04/11 05:14:31;;;;;;;5.00;2.03;;;2.20;99.90;;;;;;5095177;28;20150;-68
2022/04/11 05:16:56;;;;;;;3.88;2.30;;;2.20;99.90;;;;;;5112639;28;20039;-69
2022/04/11 05:19:29;;;;;;;3.50;2.63;;;2.30;99.90;;;;;;5095455;28;20055;-69
2022/04/11 05:21:54;;;;;;;3.63;3.15;;;2.30;99.90;;;;;;5113289;28;20043;-69
2022/04/11 05:24:20;;;;;;;4.03;2.47;;;2.40;99.90;;;;;;5094458;28;20063;-68
2022/04/11 05:26:45;;;;;;;3.80;2.53;;;2.40;99.90;;;;;;5095264;28;20044;-68
2022/04/11 05:29:11;;;;;;;6.13;2.60;;;3.40;99.90;;;;;;5094970;28;20490;-68
2022/04/11 05:31:37;;;;;;;2.55;2.35;;;2.50;99.90;;;;;;5112365;28;20387;-68
2022/04/11 05:34:05;;;;;;;4.82;2.80;;;2.80;99.90;;;;;;5093344;28;20066;-68
2022/04/11 05:36:31;;;;;;;4.65;2.70;;;2.50;99.90;;;;;;5113147;28;20066;-68
2022/04/11 05:38:56;;;;;;;6.28;2.78;;;2.60;99.90;;;;;;5111858;28;20490;-68
2022/04/11 05:41:22;;;;;;;7.20;3.00;;;2.70;99.90;;;;;;5094362;28;20394;-69
2022/04/11 05:43:47;;;;;;;4.15;2.08;;;2.70;99.90;;;;;;5112907;28;20192;-68
2022/04/11 05:46:13;;;;;;;4.82;2.35;;;2.70;99.90;;;;;;5111909;28;20089;-68
2022/04/11 05:48:40;;;;;;;5.78;2.67;;;2.70;99.90;;;;;;5087584;28;20055;-69
2022/04/11 05:51:06;;;;;;;6.30;2.55;;;2.80;99.90;;;;;;5082510;28;20086;-69
2022/04/11 05:53:32;;;;;;;5.10;2.70;;;2.80;99.90;;;;;;5090897;28;20071;-69
2022/04/11 05:55:57;;;;;;;7.80;2.55;;;2.90;99.90;;;;;;5099618;28;20050;-69
2022/04/11 05:58:23;;;;;;;7.57;2.28;;;2.90;99.90;;;;;;5073541;28;20055;-69
2022/04/11 06:00:48;;;;;;;4.25;2.70;;;2.90;99.90;;;;;;5100826;28;20596;-69
2022/04/11 06:03:14;;;;;;;5.28;2.63;;;3.00;99.90;;;;;;5092105;28;20248;-68
2022/04/11 06:05:40;;;;;;;2.97;2.33;;;3.00;99.90;;;;;;5078263;28;20047;-69
2022/04/11 06:08:06;;;;;;;3.17;2.13;;;3.10;99.90;;;;;;5112181;28;20047;-69
2022/04/11 06:10:31;;;;;;;5.00;2.95;;;3.10;99.90;;;;;;5111432;28;20105;-69
2022/04/11 06:12:57;;;;;;;7.10;3.08;;;3.10;99.90;;;;;;5093274;28;20040;-69
2022/04/11 06:15:23;;;;;;;4.80;2.63;;;3.20;99.90;;;;;;5111975;28;20058;-69
2022/04/11 06:17:48;;;;;;;3.70;2.50;;;3.20;99.90;;;;;;5092079;28;20068;-69
2022/04/11 06:20:14;;;;;;;4.13;2.60;;;3.30;99.90;;;;;;5090925;28;20044;-69
2022/04/11 06:22:40;;;;;;;4.53;3.63;;;3.30;99.90;;;;;;5091858;28;20048;-69
2022/04/11 06:25:08;;;;;;;4.90;3.08;;;3.40;99.90;;;;;;5073624;28;20103;-69
2022/04/11 06:27:36;;;;;;;5.97;2.88;;;3.40;99.90;;;;;;5091317;28;20040;-69
2022/04/11 06:30:02;;;;;;;6.82;2.78;;;3.40;99.90;;;;;;5075844;28;20028;-69
2022/04/11 06:32:28;;;;;;;4.65;2.28;;;3.50;99.90;;;;;;5112208;28;20084;-70
2022/04/11 06:34:54;;;;;;;4.72;2.65;;;3.60;99.90;;;;;;5080978;28;20076;-69
2022/04/11 06:37:21;;;;;;;6.80;3.67;;;3.60;99.90;;;;;;5091807;28;20079;-69
2022/04/11 06:39:47;;;;;;;3.50;2.40;;;3.70;99.90;;;;;;5091746;28;20040;-69
2022/04/11 06:42:13;;;;;;;2.97;2.30;;;3.70;99.90;;;;;;5090880;28;20040;-69
2022/04/11 06:44:39;;;;;;;4.97;2.55;;;3.90;99.90;;;;;;5074629;28;20059;-69
2022/04/11 06:47:05;;;;;;;4.40;2.67;;;3.90;99.90;;;;;;5092518;28;20134;-69
2022/04/11 06:49:30;;;;;;;2.88;2.53;;;4.00;99.90;;;;;;5084639;28;20075;-69
2022/04/11 06:51:56;;;;;;;4.70;2.83;;;4.10;99.90;;;;;;5073177;28;20494;-69
2022/04/11 06:54:22;;;;;;;5.00;3.13;;;4.20;99.90;;;;;;5073218;28;20048;-69
2022/04/11 06:56:47;;;;;;;5.00;2.80;;;4.30;99.90;;;;;;5075762;28;20044;-68
2022/04/11 06:59:15;;;;;;;5.65;3.95;;;4.40;99.90;;;;;;5088249;28;20040;-68
2022/04/11 07:01:43;;;;;;;7.97;3.15;;;4.50;99.90;;;;;;5084778;28;20055;-69
2022/04/11 07:04:09;;;;;;;5.93;2.80;;;4.60;99.90;;;;;;5093466;28;20055;-69
2022/04/11 07:06:35;;;;;;;4.90;2.72;;;4.60;99.90;;;;;;5100192;28;20047;-69
2022/04/11 07:09:00;;;;;;;4.18;3.35;;;4.70;99.90;;;;;;5073036;28;20055;-69
2022/04/11 07:11:26;;;;;;;4.40;2.75;;;4.80;99.90;;;;;;5079973;28;20134;-69
2022/04/11 07:13:52;;;;;;;3.28;2.83;;;4.90;99.90;;;;;;5112002;28;20039;-69
2022/04/11 07:16:17;;;;;;;3.25;2.75;;;5.00;99.90;;;;;;5110247;28;20051;-68
2022/04/11 07:18:43;;;;;;;4.70;2.53;;;5.00;99.90;;;;;;5073252;28;20032;-69
2022/04/11 07:21:08;;;;;;;5.05;2.60;;;5.10;99.90;;;;;;5091079;28;20048;-68
2022/04/11 07:23:34;;;;;;;3.50;2.70;;;5.20;99.90;;;;;;5097845;28;20563;-69
2022/04/11 07:26:00;;;;;;;15.75;3.90;;;5.20;99.90;;;;;;5095491;28;20090;-69
2022/04/11 07:28:25;;;;;;;7.78;3.15;;;5.30;99.90;;;;;;5090206;28;20055;-69
2022/04/11 07:30:51;;;;;;;4.78;2.42;;;5.30;99.90;;;;;;5072119;28;20055;-69
2022/04/11 07:33:17;;;;;;;3.63;2.15;;;5.40;99.90;;;;;;5075919;28;20390;-69
2022/04/11 07:35:43;;;;;;;5.55;2.95;;;5.50;99.90;;;;;;5102389;28;20122;-69
2022/04/11 07:38:09;;;;;;;7.93;3.10;;;5.60;99.90;;;;;;5087344;28;20126;-69
2022/04/11 07:40:34;;;;;;;4.80;2.97;;;5.70;99.90;;;;;;5091129;28;20428;-70
2022/04/11 07:43:00;;;;;;;4.03;2.28;;;5.70;99.90;;;;;;5090814;28;20044;-69
2022/04/11 07:45:25;;;;;;;4.25;2.42;;;5.80;99.90;;;;;;5076343;28;20043;-67
2022/04/11 07:47:51;;;;;;;4.70;2.53;;;5.90;99.90;;;;;;5092411;28;20118;-66
2022/04/11 07:50:17;;;;;;;3.60;2.50;;;5.90;99.90;;;;;;5107041;28;20051;-66
2022/04/11 07:52:43;;;;;;;5.85;2.60;;;6.00;99.90;;;;;;5092582;28;20094;-67
2022/04/11 07:55:11;;;;;;;3.88;2.25;;;6.10;99.90;;;;;;5072298;28;20060;-70
2022/04/11 07:57:37;;;;;;;3.33;2.53;;;6.10;99.90;;;;;;5075887;28;20399;-70
2022/04/11 08:00:06;;;;;;;3.55;1.80;;;6.30;99.90;;;;;;5077748;28;20048;-72
2022/04/11 08:02:32;;;;;;;4.22;2.05;;;6.40;99.90;;;;;;5096831;28;20134;-70
2022/04/11 08:05:01;;;;;;;4.15;2.58;;;6.50;99.90;;;;;;5113641;28;20482;-72
2022/04/11 08:07:26;;;;;;;9.48;2.33;;;6.60;99.90;;;;;;5096633;28;20123;-71
2022/04/11 08:09:52;;;;;;;6.25;2.40;;;6.70;99.90;;;;;;5114958;28;20511;-67
2022/04/11 08:12:18;;;;;;;4.47;1.75;;;6.70;99.90;;;;;;5095374;28;20047;-68
2022/04/11 08:14:44;;;;;;;4.43;2.50;;;6.80;99.90;;;;;;5114877;28;20043;-69
2022/04/11 08:17:09;;;;;;;4.72;2.05;;;6.90;99.90;;;;;;5101952;28;20618;-68
2022/04/11 08:19:35;;;;;;;7.93;2.03;;;7.00;99.90;;;;;;5081218;28;20044;-69
2022/04/11 08:22:00;;;;;;;2.13;1.50;;;7.10;99.90;;;;;;5105787;27;20486;-69
2022/04/11 08:24:26;;;;;;;2.80;1.65;;;7.20;99.90;;;;;;5112962;27;20051;-69
2022/04/11 08:26:51;;;;;;;5.93;1.85;;;7.20;99.90;;;;;;5130769;27;20047;-68
2022/04/11 08:29:20;;;;;;;6.97;2.00;;;7.30;99.90;;;;;;5095294;28;20039;-68
2022/04/11 08:31:46;;;;;;;3.50;1.83;;;7.40;99.90;;;;;;5119967;27;20039;-68
2022/04/11 08:34:11;;;;;;;5.97;1.80;;;7.50;99.90;;;;;;5111178;28;20390;-67
2022/04/11 08:36:37;;;;;;;4.70;2.10;;;7.60;99.90;;;;;;5097245;28;20098;-68
2022/04/11 08:39:02;;;;;;;2.78;1.70;;;7.80;99.90;;;;;;5075131;28;20040;-68
2022/04/11 08:41:36;;;;;;;7.18;2.13;;;7.90;99.90;;;;;;5079706;28;20056;-67
2022/04/11 08:44:04;;;;;;;5.25;1.83;;;8.00;99.90;;;;;;5078804;28;20095;-69
2022/04/11 08:46:31;;;;;;;4.25;1.70;;;8.10;99.90;;;;;;5102734;28;20044;-68
2022/04/11 08:48:59;;;;;;;3.72;1.52;;;8.20;99.90;;;;;;5074033;28;20059;-69
2022/04/11 08:51:25;;;;;;;5.32;1.00;;;8.30;99.90;;;;;;5102009;28;20394;-67
2022/04/11 08:53:52;;;;;;;3.58;1.40;;;8.40;99.90;;;;;;5075170;28;20048;-67
2022/04/11 08:56:18;;;;;;;3.45;1.30;;;8.50;99.90;;;;;;5092501;28;20105;-68
2022/04/11 08:58:44;;;;;;;4.32;1.92;;;8.50;99.90;;;;;;5075199;28;20480;-68
2022/04/11 09:01:09;;;;;;;2.33;1.52;;;8.50;99.90;;;;;;5093483;28;20048;-67
2022/04/11 09:03:35;;;;;;;4.18;1.65;;;8.60;99.90;;;;;;5110444;28;20044;-67
2022/04/11 09:06:09;;;;;;;2.25;1.23;;;8.70;99.90;;;;;;5110887;28;20039;-67
2022/04/11 09:09:00;;;;;;;4.35;1.63;;;8.90;99.90;;;;;;5111822;28;20405;-67
2022/04/11 09:11:31;;;;;;;3.72;1.48;;;9.10;99.90;;;;;;5094412;28;20079;-67
2022/04/11 09:13:58;;;;;;;3.63;1.48;;;9.20;99.90;;;;;;5112434;28;20053;-68
2022/04/11 09:16:24;;;;;;;2.33;1.13;;;9.40;99.90;;;;;;5112600;28;20040;-67
2022/04/11 09:18:52;;;;;;;2.50;0.98;;;9.40;99.90;;;;;;5113253;28;20393;-68
2022/04/11 09:21:19;;;;;;;4.72;1.30;;;9.50;99.90;;;;;;5085859;28;20044;-66
2022/04/11 09:23:46;;;;;;;2.13;1.25;;;9.60;99.90;;;;;;5102866;27;20051;-67
2022/04/11 09:26:22;;;;;;;2.25;1.20;;;9.60;99.90;;;;;;5099462;28;20147;-67
2022/04/11 09:29:04;;;;;;;3.78;1.52;;;9.60;99.90;;;;;;5099907;27;20059;-68
2022/04/11 09:31:33;;;;;;;4.70;1.75;;;9.70;99.90;;;;;;5082452;27;20058;-67
2022/04/11 09:34:12;;;;;;;4.72;1.45;;;9.80;99.90;;;;;;5083324;28;20039;-67
2022/04/11 09:36:48;;;;;;;2.45;1.13;;;9.80;99.90;;;;;;5106072;28;20634;-67
2022/04/11 09:39:14;;;;;;;2.47;1.48;;;9.90;99.90;;;;;;5110322;28;20044;-67
2022/04/11 09:41:46;;;;;;;2.30;0.90;;;10.00;99.90;;;;;;5101272;28;20162;-68
2022/04/11 09:44:28;;;;;;;5.00;1.80;;;10.10;99.90;;;;;;5073141;28;20525;-68
2022/04/11 09:46:55;;;;;;;2.80;1.40;;;10.10;99.90;;;;;;5073946;28;20075;-68
2022/04/11 09:49:21;;;;;;;4.03;1.10;;;10.20;99.90;;;;;;5072970;28;20052;-68
2022/04/11 09:52:08;;;;;;;4.35;1.50;;;10.20;99.90;;;;;;5072531;28;20040;-67
2022/04/11 09:54:36;;;;;;;3.65;1.63;;;10.30;99.90;;;;;;5073995;28;20071;-67
2022/04/11 09:57:06;;;;;;;2.95;1.40;;;10.30;99.90;;;;;;5081800;28;20047;-67
2022/04/11 09:59:32;;;;;;;5.25;1.80;;;10.40;99.90;;;;;;5102380;28;20043;-68
2022/04/11 10:01:58;;;;;;;3.67;1.67;;;10.40;99.70;;;;;;5079649;28;20052;-68
2022/04/11 10:04:24;;;;;;;3.38;1.40;;;10.50;99.90;;;;;;5101250;28;20048;-67
2022/04/11 10:06:51;;;;;;;3.60;1.50;;;10.60;99.90;;;;;;5073412;28;20059;-68
2022/04/11 10:09:19;;;;;;;5.30;1.95;;;10.70;99.90;;;;;;5091066;28;20459;-67
2022/04/11 10:11:45;;;;;;;3.00;1.35;;;10.80;99.90;;;;;;5094782;28;20433;-68
2022/04/11 10:14:12;;;;;;;3.28;1.80;;;10.80;99.90;;;;;;5105326;28;20043;-68
2022/04/11 10:16:42;;;;;;;5.70;1.33;;;10.80;99.90;;;;;;5112339;28;20093;-68
2022/04/11 10:19:09;;;;;;;4.80;1.65;;;10.80;99.30;;;;;;5086417;28;20118;-68
2022/04/11 10:21:41;;;;;;;5.15;2.35;;;10.90;99.90;;;;;;5111959;28;20225;-68
2022/04/11 10:24:14;;;;;;;4.25;1.83;;;11.00;97.40;;;;;;5073374;28;20055;-69
2022/04/11 10:26:43;;;;;;;4.32;1.73;;;11.00;99.20;;;;;;5091828;28;20047;-68
2022/04/11 10:29:36;;;;;;;2.60;1.77;;;11.00;99.60;;;;;;5096923;28;20379;-68
2022/04/11 10:32:10;;;;;;;5.30;1.92;;;11.20;98.60;;;;;;5073234;28;20072;-68
2022/04/11 10:35:01;;;;;;;8.55;2.22;;;11.20;99.10;;;;;;5090754;28;20044;-68
2022/04/11 10:37:50;;;;;;;4.43;1.88;;;11.30;97.10;;;;;;5073285;28;20043;-68
2022/04/11 10:40:15;;;;;;;2.47;1.80;;;11.30;98.90;;;;;;5086664;28;20087;-69
2022/04/11 10:43:08;;;;;;;4.75;1.70;;;11.40;98.80;;;;;;5073441;28;20075;-70
2022/04/11 10:45:42;;;;;;;3.97;1.85;;;11.40;97.00;;;;;;5095569;28;20498;-69
2022/04/11 10:48:10;;;;;;;5.60;2.20;;;11.60;98.50;;;;;;5110943;28;20374;-68
2022/04/11 10:50:36;;;;;;;4.53;2.38;;;11.60;97.40;;;;;;5111598;28;20056;-68
2022/04/11 10:53:24;;;;;;;3.88;1.80;;;11.70;97.40;;;;;;5093263;28;20051;-68
2022/04/11 10:55:58;;;;;;;6.38;2.20;;;11.80;95.00;;;;;;5092747;28;20486;-69
2022/04/11 10:58:48;;;;;;;7.40;2.30;;;11.90;96.00;;;;;;5083427;28;20036;-68
2022/04/11 11:01:15;;;;;;;3.42;1.90;;;11.80;92.50;;;;;;5071293;28;20079;-67
2022/04/11 11:03:57;;;;;;;3.60;1.60;;;11.90;94.40;;;;;;5090209;28;20044;-67
2022/04/11 11:06:23;;;;;;;7.53;2.35;;;11.90;95.00;;;;;;5073256;28;20070;-68
2022/04/11 11:08:49;;;;;;;2.00;1.60;;;11.90;93.60;;;;;;5090681;28;20483;-67
2022/04/11 11:11:26;;;;;;;5.60;1.77;;;11.90;93.90;;;;;;5094200;28;20056;-68
2022/04/11 11:13:53;;;;;;;3.10;2.07;;;12.00;92.30;;;;;;5075848;28;20044;-68
2022/04/11 11:16:18;;;;;;;3.78;2.03;;;12.00;93.70;;;;;;5083058;28;20056;-68
2022/04/11 11:21:16;;;;;;;2.55;1.75;;;12.00;84.20;;;;;;5090969;28;20127;-68
2022/04/11 11:24:02;;;;;;;6.63;2.67;;;11.90;89.10;;;;;;5072566;28;20467;-68
2022/04/11 11:26:31;;;;;;;4.00;1.73;;;12.00;90.30;;;;;;5096595;28;20044;-67
2022/04/11 11:28:57;;;;;;;3.22;2.28;;;12.10;89.50;;;;;;5091875;28;20123;-67
2022/04/11 11:31:23;;;;;;;6.07;2.08;;;12.10;88.20;;;;;;5110239;28;20127;-67
2022/04/11 11:33:51;;;;;;;2.67;2.28;;;12.10;83.80;;;;;;5097222;28;20197;-67
2022/04/11 11:36:17;;;;;;;3.28;2.33;;;12.10;81.00;;;;;;5096095;28;20051;-69
2022/04/11 11:38:42;;;;;;;4.60;2.22;;;12.10;83.30;;;;;;5089173;28;20398;-69
2022/04/11 11:41:08;;;;;;;3.05;2.13;;;12.20;84.50;;;;;;5114792;28;20040;-71
2022/04/11 11:43:34;;;;;;;13.57;2.55;;;12.30;85.00;;;;;;5114529;28;20035;-69
2022/04/11 11:46:02;;;;;;;3.17;2.22;;;12.40;85.20;;;;;;5102751;28;20492;-69
2022/04/11 11:48:29;;;;;;;4.20;2.47;;;12.30;83.30;;;;;;5077211;28;20051;-66
2022/04/11 11:50:57;;;;;;;4.38;2.38;;;12.30;84.80;;;;;;5102970;28;20056;-67
2022/04/11 11:53:24;;;;;;;5.30;2.30;;;12.40;84.90;;;;;;5106354;27;20474;-67
2022/04/11 11:55:54;;;;;;;3.35;1.92;;;12.30;85.60;;;;;;5104447;27;20039;-66
2022/04/11 11:58:19;;;;;;;5.03;2.22;;;12.30;83.50;;;;;;5114044;28;20129;-67
2022/04/11 12:00:47;;;;;;;3.00;2.10;;;12.40;83.50;;;;;;5115326;28;20052;-67
2022/04/11 12:06:03;;;;;;;5.15;2.85;;;12.50;81.60;;;;;;5093531;28;20123;-67
2022/04/11 12:08:30;;;;;;;2.30;1.80;;;12.60;81.00;;;;;;5076389;28;20105;-66
2022/04/11 12:10:58;;;;;;;2.65;2.38;;;12.60;82.70;;;;;;5113361;27;20077;-67
2022/04/11 12:13:26;;;;;;;4.05;1.95;;;12.70;81.90;;;;;;5134568;27;20047;-66
2022/04/11 12:15:52;;;;;;;6.65;2.53;;;12.80;81.80;;;;;;5135329;27;20047;-67
2022/04/11 12:18:18;;;;;;;4.57;2.50;;;12.80;81.10;;;;;;5134135;27;20038;-67
2022/04/11 12:20:44;;;;;;;5.25;2.13;;;12.80;81.60;;;;;;5135197;27;20125;-66
2022/04/11 12:23:15;;;;;;;7.75;2.67;;;12.90;80.70;;;;;;5134789;27;20043;-67
2022/04/11 12:25:56;;;;;;;4.57;2.60;;;13.00;79.90;;;;;;5107668;28;20051;-67
2022/04/11 12:28:25;;;;;;;4.75;2.28;;;13.00;78.50;;;;;;5114287;28;20046;-66
2022/04/11 12:31:03;;;;;;;6.10;2.80;;;13.00;78.00;;;;;;5110645;28;20043;-66
2022/04/11 12:33:40;;;;;;;6.57;2.42;;;13.10;77.10;;;;;;5110974;28;20095;-66
2022/04/11 12:36:07;;;;;;;3.92;2.50;;;13.20;79.00;;;;;;5113571;28;20047;-66
2022/04/11 12:38:44;;;;;;;3.72;2.60;;;13.30;78.40;;;;;;5095781;28;20050;-67
2022/04/11 12:41:40;;;;;;;4.38;2.72;;;13.30;78.40;;;;;;5113045;28;20055;-67
2022/04/11 12:44:17;;;;;;;2.95;1.92;;;13.40;74.90;;;;;;5095502;28;20051;-67
2022/04/11 12:46:48;;;;;;;4.35;2.30;;;13.50;78.40;;;;;;5105258;28;20042;-66
2022/04/11 12:49:18;;;;;;;5.35;2.78;;;13.50;78.50;;;;;;5100817;28;20058;-66
2022/04/11 12:51:57;;;;;;;4.50;2.08;;;13.60;77.00;;;;;;5104313;27;20036;-68
2022/04/11 12:54:22;;;;;;;5.13;2.20;;;15.00;76.60;;;;;;5096919;28;20044;-67
2022/04/11 12:56:51;;;;;;;4.32;2.20;;;13.50;76.10;;;;;;5097183;28;20467;-68
2022/04/11 12:59:31;;;;;;;5.07;2.42;;;13.40;74.30;;;;;;5093104;28;20505;-67
2022/04/11 13:02:03;;;;;;;4.13;2.30;;;13.40;74.90;;;;;;5074227;28;20492;-67
2022/04/11 13:04:29;;;;;;;10.52;3.20;;;13.50;75.90;;;;;;5074810;28;20467;-67